createdAt,value
2018-09-06T00:02:15.100Z,18.25
2018-09-06T00:04:48.037Z,17.94
2018-09-06T00:07:21.044Z,17.87
2018-09-06T00:09:54.094Z,17.87
2018-09-06T00:12:27.157Z,18.06
2018-09-06T00:15:00.215Z,18.06
2018-09-06T00:17:34.389Z,17.94
2018-09-06T00:20:07.424Z,17.87
2018-09-06T00:22:40.433Z,18.12
2018-09-06T00:25:13.388Z,17.94
2018-09-06T00:27:46.493Z,17.69
2018-09-06T00:30:19.586Z,17.69
2018-09-06T00:32:52.577Z,18.06
2018-09-06T00:35:25.745Z,17.75
2018-09-06T00:37:58.790Z,17.69
2018-09-06T00:40:31.814Z,17.69
2018-09-06T00:43:04.982Z,17.56
2018-09-06T00:45:38.110Z,17.62
2018-09-06T00:48:11.268Z,17.62
2018-09-06T00:50:44.274Z,17.56
2018-09-06T00:53:17.364Z,17.50
2018-09-06T00:55:50.331Z,17.44
2018-09-06T00:58:23.392Z,17.44
2018-09-06T01:00:56.603Z,17.44
2018-09-06T01:03:29.534Z,17.44
2018-09-06T01:06:02.527Z,17.44
2018-09-06T01:08:35.505Z,17.50
2018-09-06T01:11:08.423Z,17.44
2018-09-06T01:13:41.483Z,17.56
2018-09-06T01:16:14.542Z,17.62
2018-09-06T01:18:47.655Z,17.44
2018-09-06T01:21:20.837Z,17.50
2018-09-06T01:23:53.979Z,17.56
2018-09-06T01:26:26.936Z,17.44
2018-09-06T01:29:00.171Z,17.50
2018-09-06T01:31:33.230Z,17.50
2018-09-06T01:34:06.269Z,17.50
2018-09-06T01:36:45.756Z,17.56
2018-09-06T01:39:18.923Z,17.56
2018-09-06T01:41:51.989Z,17.44
2018-09-06T01:44:24.925Z,17.44
2018-09-06T01:46:58.099Z,17.56
2018-09-06T01:49:31.758Z,17.50
2018-09-06T01:52:04.977Z,17.56
2018-09-06T01:54:37.991Z,17.56
2018-09-06T01:57:10.945Z,17.62
2018-09-06T01:59:43.839Z,17.50
2018-09-06T02:02:17.517Z,17.50
2018-09-06T02:04:50.611Z,17.44
2018-09-06T02:07:23.715Z,17.50
2018-09-06T02:09:56.671Z,17.44
2018-09-06T02:12:29.612Z,17.44
2018-09-06T02:15:02.737Z,17.44
2018-09-06T02:17:35.895Z,17.75
2018-09-06T02:20:08.987Z,17.56
2018-09-06T02:22:42.020Z,17.56
2018-09-06T02:25:15.135Z,17.44
2018-09-06T02:27:48.275Z,17.44
2018-09-06T02:30:21.264Z,17.62
2018-09-06T02:32:54.471Z,17.56
2018-09-06T02:35:27.540Z,17.69
2018-09-06T02:38:00.589Z,17.56
2018-09-06T02:40:37.376Z,17.56
2018-09-06T02:43:12.601Z,17.50
2018-09-06T02:45:45.683Z,17.50
2018-09-06T02:48:23.514Z,17.69
2018-09-06T02:51:02.151Z,17.56
2018-09-06T02:53:35.095Z,17.50
2018-09-06T02:56:08.261Z,17.75
2018-09-06T02:58:41.272Z,17.56
2018-09-06T03:01:14.379Z,17.62
2018-09-06T03:03:47.523Z,17.44
2018-09-06T03:06:20.611Z,17.75
2018-09-06T03:08:53.616Z,17.44
2018-09-06T03:11:31.194Z,17.31
2018-09-06T03:14:04.420Z,17.50
2018-09-06T03:16:37.436Z,17.50
2018-09-06T03:19:10.531Z,17.25
2018-09-06T03:21:43.756Z,17.25
2018-09-06T03:24:16.923Z,17.25
2018-09-06T03:26:49.920Z,17.25
2018-09-06T03:29:22.871Z,17.37
2018-09-06T03:31:55.867Z,17.25
2018-09-06T03:34:28.819Z,17.31
2018-09-06T03:37:01.880Z,17.25
2018-09-06T03:39:34.972Z,17.25
2018-09-06T03:42:07.950Z,17.44
2018-09-06T03:44:41.157Z,17.25
2018-09-06T03:47:14.120Z,17.62
2018-09-06T03:49:47.258Z,17.25
2018-09-06T03:52:20.227Z,17.19
2018-09-06T03:54:53.164Z,17.12
2018-09-06T03:57:26.240Z,17.19
2018-09-06T03:59:59.178Z,17.12
2018-09-06T04:02:32.234Z,17.00
2018-09-06T04:05:05.410Z,17.62
2018-09-06T04:07:38.367Z,17.12
2018-09-06T04:10:11.316Z,17.00
2018-09-06T04:12:44.297Z,17.00
2018-09-06T04:15:17.562Z,16.94
2018-09-06T04:17:50.536Z,16.94
2018-09-06T04:20:23.626Z,16.94
2018-09-06T04:22:56.816Z,17.12
2018-09-06T04:25:29.805Z,17.06
2018-09-06T04:28:02.958Z,16.87
2018-09-06T04:30:35.960Z,16.94
2018-09-06T04:33:08.929Z,16.94
2018-09-06T04:35:42.065Z,16.87
2018-09-06T04:38:15.198Z,16.94
2018-09-06T04:40:48.238Z,16.94
2018-09-06T04:43:21.176Z,16.94
2018-09-06T04:45:54.300Z,16.94
2018-09-06T04:48:27.410Z,16.87
2018-09-06T04:51:00.580Z,16.87
2018-09-06T04:53:33.684Z,17.06
2018-09-06T04:56:06.790Z,16.94
2018-09-06T04:58:39.754Z,16.94
2018-09-06T05:01:13.976Z,16.94
2018-09-06T05:03:47.032Z,17.00
2018-09-06T05:06:20.006Z,16.94
2018-09-06T05:08:53.094Z,16.94
2018-09-06T05:11:26.152Z,16.87
2018-09-06T05:13:59.165Z,16.87
2018-09-06T05:16:32.202Z,16.87
2018-09-06T05:19:05.559Z,16.94
2018-09-06T05:21:38.510Z,16.81
2018-09-06T05:24:11.477Z,16.81
2018-09-06T05:26:44.666Z,17.06
2018-09-06T05:29:17.794Z,16.94
2018-09-06T05:31:50.901Z,16.87
2018-09-06T05:34:24.014Z,16.94
2018-09-06T05:36:57.059Z,16.94
2018-09-06T05:39:30.158Z,16.94
2018-09-06T05:42:03.298Z,17.00
2018-09-06T05:44:36.254Z,17.00
2018-09-06T05:47:09.251Z,16.94
2018-09-06T05:49:42.259Z,17.12
2018-09-06T05:52:15.330Z,17.31
2018-09-06T05:54:48.435Z,17.44
2018-09-06T05:57:21.430Z,17.37
2018-09-06T05:59:54.399Z,17.37
2018-09-06T06:02:27.514Z,17.50
2018-09-06T06:05:00.532Z,17.56
2018-09-06T06:07:45.124Z,17.56
2018-09-06T06:10:18.202Z,17.62
2018-09-06T06:12:51.563Z,17.75
2018-09-06T06:15:24.671Z,17.62
2018-09-06T06:17:57.618Z,17.81
2018-09-06T06:20:30.668Z,17.81
2018-09-06T06:23:04.200Z,17.62
2018-09-06T06:25:37.181Z,17.87
2018-09-06T06:28:10.138Z,17.69
2018-09-06T06:30:43.214Z,17.81
2018-09-06T06:33:16.106Z,17.81
2018-09-06T06:35:49.200Z,17.87
2018-09-06T06:38:22.204Z,17.94
2018-09-06T06:40:55.232Z,18.00
2018-09-06T06:43:28.200Z,17.81
2018-09-06T06:46:01.142Z,17.75
2018-09-06T06:48:34.120Z,18.06
2018-09-06T06:51:07.092Z,17.94
2018-09-06T06:53:40.134Z,17.94
2018-09-06T06:56:13.126Z,17.81
2018-09-06T06:58:46.063Z,17.69
2018-09-06T07:01:19.189Z,17.87
2018-09-06T07:03:52.334Z,17.75
2018-09-06T07:06:25.390Z,17.87
2018-09-06T07:08:58.327Z,17.75
2018-09-06T07:11:31.309Z,18.06
2018-09-06T07:14:04.417Z,18.12
2018-09-06T07:16:39.490Z,18.06
2018-09-06T07:19:12.603Z,18.19
2018-09-06T07:21:46.219Z,18.19
2018-09-06T07:24:19.335Z,18.37
2018-09-06T07:26:52.366Z,18.50
2018-09-06T07:29:25.393Z,18.62
2018-09-06T07:31:58.516Z,18.37
2018-09-06T07:34:31.510Z,18.69
2018-09-06T07:37:04.575Z,18.69
2018-09-06T07:39:37.741Z,18.44
2018-09-06T07:42:10.838Z,18.62
2018-09-06T07:44:43.956Z,18.75
2018-09-06T07:47:17.070Z,18.69
2018-09-06T07:49:50.155Z,18.69
2018-09-06T07:52:23.318Z,18.75
2018-09-06T07:54:56.283Z,18.87
2018-09-06T07:57:29.719Z,18.81
2018-09-06T08:00:02.824Z,19.00
2018-09-06T08:02:35.946Z,18.94
2018-09-06T08:05:09.263Z,19.37
2018-09-06T08:07:42.297Z,19.19
2018-09-06T08:10:15.403Z,19.31
2018-09-06T08:12:48.467Z,19.37
2018-09-06T08:15:21.530Z,19.44
2018-09-06T08:17:54.497Z,19.56
2018-09-06T08:20:27.559Z,19.62
2018-09-06T08:23:01.038Z,19.69
2018-09-06T08:25:34.169Z,19.69
2018-09-06T08:28:07.324Z,19.81
2018-09-06T08:30:40.599Z,19.69
2018-09-06T08:33:13.545Z,19.81
2018-09-06T08:35:46.676Z,19.75
2018-09-06T08:38:19.870Z,20.06
2018-09-06T08:40:53.038Z,19.94
2018-09-06T08:43:26.066Z,19.94
2018-09-06T08:45:59.234Z,20.12
2018-09-06T08:48:32.318Z,20.19
2018-09-06T08:51:05.679Z,20.44
2018-09-06T08:53:38.902Z,20.44
2018-09-06T08:56:12.053Z,20.62
2018-09-06T08:58:45.013Z,20.56
2018-09-06T09:01:23.764Z,20.56
2018-09-06T09:03:56.894Z,20.50
2018-09-06T09:06:30.053Z,20.50
2018-09-06T09:09:04.822Z,20.44
2018-09-06T09:11:37.935Z,20.75
2018-09-06T09:14:11.055Z,20.62
2018-09-06T09:16:44.246Z,20.75
2018-09-06T09:19:17.370Z,20.81
2018-09-06T09:21:50.459Z,21.06
2018-09-06T09:24:23.483Z,21.12
2018-09-06T09:26:56.412Z,21.00
2018-09-06T09:29:29.478Z,21.25
2018-09-06T09:32:02.513Z,21.12
2018-09-06T09:34:35.493Z,21.25
2018-09-06T09:37:08.641Z,21.31
2018-09-06T09:39:41.755Z,21.37
2018-09-06T09:42:14.759Z,21.50
2018-09-06T09:44:47.879Z,21.50
2018-09-06T09:49:53.398Z,21.56
2018-09-06T09:52:26.468Z,21.94
2018-09-06T09:54:59.639Z,22.19
2018-09-06T09:57:32.753Z,22.31
2018-09-06T10:00:06.072Z,22.25
2018-09-06T10:02:45.009Z,22.50
2018-09-06T10:07:28.517Z,22.81
2018-09-06T10:10:01.685Z,22.75
2018-09-06T10:12:34.852Z,22.75
2018-09-06T10:15:13.071Z,22.81
2018-09-06T10:17:46.071Z,22.75
2018-09-06T10:20:19.163Z,22.56
2018-09-06T10:22:52.273Z,22.56
2018-09-06T10:25:25.281Z,22.69
2018-09-06T10:27:58.407Z,22.69
2018-09-06T10:30:31.589Z,22.31
2018-09-06T10:33:04.882Z,22.37
2018-09-06T10:35:37.973Z,22.62
2018-09-06T10:38:10.973Z,22.87
2018-09-06T10:40:44.003Z,22.81
2018-09-06T11:02:38.419Z,23.00
2018-09-06T11:05:11.452Z,23.00
2018-09-06T11:07:44.576Z,22.94
2018-09-06T11:10:17.742Z,22.94
2018-09-06T11:12:51.237Z,23.25
2018-09-06T11:15:24.409Z,23.31
2018-09-06T11:17:57.632Z,23.25
2018-09-06T11:20:30.775Z,23.12
2018-09-06T11:23:03.722Z,23.31
2018-09-06T11:25:36.793Z,23.38
2018-09-06T11:28:09.750Z,23.50
2018-09-06T11:30:42.823Z,23.56
2018-09-06T11:33:15.933Z,23.62
2018-09-06T11:35:48.881Z,23.44
2018-09-06T11:38:22.021Z,23.69
2018-09-06T11:40:55.017Z,23.62
2018-09-06T11:43:28.065Z,23.62
2018-09-06T11:46:02.160Z,23.69
2018-09-06T11:48:35.337Z,23.81
2018-09-06T11:51:08.845Z,24.06
2018-09-06T11:53:41.869Z,23.87
2018-09-06T11:56:14.826Z,24.12
2018-09-06T11:58:47.815Z,24.19
2018-09-06T12:01:20.825Z,24.12
2018-09-06T12:03:54.702Z,24.00
2018-09-06T12:06:27.832Z,24.06
2018-09-06T12:09:01.068Z,24.06
2018-09-06T12:11:34.564Z,24.12
2018-09-06T12:14:07.767Z,23.81
2018-09-06T12:16:40.862Z,23.81
2018-09-06T12:19:13.929Z,24.06
2018-09-06T12:21:46.984Z,24.06
2018-09-06T12:24:20.083Z,24.19
2018-09-06T12:26:53.199Z,24.12
2018-09-06T12:29:26.340Z,24.06
2018-09-06T12:31:59.481Z,24.00
2018-09-06T12:34:32.667Z,24.12
2018-09-06T12:37:10.408Z,24.12
2018-09-06T12:39:46.022Z,24.12
2018-09-06T12:42:19.100Z,23.81
2018-09-06T12:44:52.048Z,24.12
2018-09-06T12:47:25.144Z,24.19
2018-09-06T12:49:58.310Z,24.25
2018-09-06T12:52:32.238Z,23.87
2018-09-06T12:55:05.400Z,23.87
2018-09-06T12:57:38.468Z,24.25
2018-09-06T13:00:11.528Z,24.12
2018-09-06T13:02:45.415Z,24.37
2018-09-06T13:05:18.406Z,24.25
2018-09-06T13:07:51.448Z,24.37
2018-09-06T13:10:24.560Z,24.25
2018-09-06T13:12:58.156Z,24.37
2018-09-06T13:15:31.152Z,24.50
2018-09-06T13:18:04.665Z,24.31
2018-09-06T13:20:37.829Z,24.19
2018-09-06T13:23:11.388Z,24.31
2018-09-06T13:25:44.350Z,24.12
2018-09-06T13:28:17.501Z,24.12
2018-09-06T13:30:50.746Z,24.19
2018-09-06T13:33:23.774Z,24.56
2018-09-06T13:35:56.951Z,24.50
2018-09-06T13:38:29.931Z,24.56
2018-09-06T13:41:02.984Z,24.50
2018-09-06T13:43:36.260Z,24.56
2018-09-06T13:46:09.251Z,24.56
2018-09-06T13:48:42.327Z,24.56
2018-09-06T13:51:15.430Z,24.63
2018-09-06T13:53:48.577Z,24.50
2018-09-06T13:56:22.373Z,24.63
2018-09-06T13:58:56.130Z,24.75
2018-09-06T14:01:29.822Z,24.56
2018-09-06T14:04:02.929Z,24.75
2018-09-06T14:06:36.052Z,24.81
2018-09-06T14:09:09.128Z,24.75
2018-09-06T14:11:42.917Z,24.75
2018-09-06T14:14:15.871Z,24.69
2018-09-06T14:16:49.013Z,24.44
2018-09-06T14:19:22.125Z,24.50
2018-09-06T14:21:55.262Z,24.56
2018-09-06T14:24:28.525Z,24.31
2018-09-06T14:27:01.658Z,24.69
2018-09-06T14:29:34.644Z,24.44
2018-09-06T14:32:07.691Z,24.63
2018-09-06T14:34:41.430Z,24.63
2018-09-06T14:37:15.119Z,24.69
2018-09-06T14:39:48.100Z,24.81
2018-09-06T14:42:21.232Z,24.69
2018-09-06T14:44:54.399Z,24.50
2018-09-06T14:47:27.495Z,24.56
2018-09-06T14:50:00.496Z,24.81
2018-09-06T14:52:33.413Z,24.69
2018-09-06T14:55:06.767Z,24.44
2018-09-06T14:57:39.916Z,24.44
2018-09-06T15:00:12.904Z,24.37
2018-09-06T15:02:46.078Z,24.31
2018-09-06T15:05:20.182Z,24.50
2018-09-06T15:07:53.358Z,24.50
2018-09-06T15:10:26.481Z,24.50
2018-09-06T15:12:59.527Z,24.44
2018-09-06T15:15:32.497Z,24.37
2018-09-06T15:18:14.248Z,24.50
2018-09-06T15:20:49.368Z,24.69
2018-09-06T15:23:22.592Z,24.81
2018-09-06T15:25:55.572Z,24.87
2018-09-06T15:28:30.336Z,24.81
2018-09-06T15:31:04.546Z,24.75
2018-09-06T15:33:37.486Z,24.56
2018-09-06T15:36:10.611Z,24.56
2018-09-06T15:38:43.801Z,24.37
2018-09-06T15:41:16.808Z,24.37
2018-09-06T15:43:49.817Z,24.31
2018-09-06T15:46:23.120Z,23.87
2018-09-06T15:48:56.218Z,24.00
2018-09-06T15:51:29.252Z,24.06
2018-09-06T15:54:02.206Z,23.81
2018-09-06T15:56:35.366Z,23.87
2018-09-06T15:59:08.491Z,24.06
2018-09-06T16:01:41.567Z,23.87
2018-09-06T16:04:14.672Z,23.62
2018-09-06T16:06:47.750Z,23.81
2018-09-06T16:09:20.800Z,24.00
2018-09-06T16:11:53.993Z,23.62
2018-09-06T16:14:31.020Z,23.56
2018-09-06T16:17:04.822Z,23.56
2018-09-06T16:19:38.735Z,23.75
2018-09-06T16:22:11.810Z,23.87
2018-09-06T16:24:45.630Z,23.69
2018-09-06T16:27:18.678Z,23.56
2018-09-06T16:29:52.074Z,23.62
2018-09-06T16:32:25.128Z,23.50
2018-09-06T16:34:58.318Z,23.44
2018-09-06T16:37:31.331Z,23.50
2018-09-06T16:40:04.424Z,23.31
